Ornslund, Denmark
Current Conditions -  °F | °C
As of 2:20 PM on Wednesday 22 Oct 2014 (Local Time) from EKOD Reporting Station
Broken Clouds Broken Clouds  
Wind Chill: 52°   Ceiling: 1800
Heat Index: 52°   Visibility: 6mi
Dew Point: 52°   Wind: 5mph
Humidity: 100%   Direction: 350°N
Pressure: 29.77"   Gusts: NA
Location:  55.7°N, 10.6°E
Report Text: EKOD 221220Z 35004KT 9999 FEW008 BKN018 BKN023 11/11 Q1008
Loading
Personal Weather Stations






























Interactive Weather Map
Tropical Storm Tracking
New forecast layout! Learn more

10-Day Weather Forecast

Advertisements
Track Severe Weather on mobile